sensor_id;sensor_type;location;lat;lon;timestamp;P1;durP1;ratioP1;P2;durP2;ratioP2
28629;SDS011;15817;42.130;24.762;2023-03-31T00:00:25;4.78;;;2.90;;
28629;SDS011;15817;42.130;24.762;2023-03-31T00:02:52;3.97;;;2.80;;
28629;SDS011;15817;42.130;24.762;2023-03-31T00:05:20;6.15;;;3.17;;
28629;SDS011;15817;42.130;24.762;2023-03-31T00:07:52;4.57;;;2.60;;
28629;SDS011;15817;42.130;24.762;2023-03-31T00:10:19;7.53;;;3.20;;
28629;SDS011;15817;42.130;24.762;2023-03-31T00:12:46;4.63;;;2.90;;
28629;SDS011;15817;42.130;24.762;2023-03-31T00:15:12;4.15;;;3.20;;
28629;SDS011;15817;42.130;24.762;2023-03-31T00:17:38;4.30;;;2.78;;
28629;SDS011;15817;42.130;24.762;2023-03-31T00:20:04;4.78;;;2.80;;
28629;SDS011;15817;42.130;24.762;2023-03-31T00:22:37;8.43;;;3.20;;
28629;SDS011;15817;42.130;24.762;2023-03-31T00:25:07;4.22;;;2.85;;
28629;SDS011;15817;42.130;24.762;2023-03-31T00:27:35;5.22;;;2.92;;
28629;SDS011;15817;42.130;24.762;2023-03-31T00:30:01;5.60;;;3.45;;
28629;SDS011;15817;42.130;24.762;2023-03-31T00:32:28;8.05;;;3.20;;
28629;SDS011;15817;42.130;24.762;2023-03-31T00:34:53;4.13;;;2.88;;
28629;SDS011;15817;42.130;24.762;2023-03-31T00:37:19;5.93;;;3.30;;
28629;SDS011;15817;42.130;24.762;2023-03-31T00:39:45;6.80;;;2.58;;
28629;SDS011;15817;42.130;24.762;2023-03-31T00:42:11;7.38;;;3.20;;
28629;SDS011;15817;42.130;24.762;2023-03-31T00:47:44;8.55;;;2.83;;
28629;SDS011;15817;42.130;24.762;2023-03-31T00:50:19;5.45;;;3.30;;
28629;SDS011;15817;42.130;24.762;2023-03-31T00:52:52;5.15;;;2.88;;
28629;SDS011;15817;42.130;24.762;2023-03-31T00:55:27;6.32;;;3.00;;
28629;SDS011;15817;42.130;24.762;2023-03-31T00:57:58;4.38;;;2.80;;
28629;SDS011;15817;42.130;24.762;2023-03-31T01:00:26;5.90;;;3.13;;
28629;SDS011;15817;42.130;24.762;2023-03-31T01:02:54;4.97;;;3.05;;
28629;SDS011;15817;42.130;24.762;2023-03-31T01:05:31;4.15;;;2.60;;
28629;SDS011;15817;42.130;24.762;2023-03-31T01:08:00;4.32;;;2.42;;
28629;SDS011;15817;42.130;24.762;2023-03-31T01:10:29;4.82;;;2.97;;
28629;SDS011;15817;42.130;24.762;2023-03-31T01:13:03;6.18;;;2.97;;
28629;SDS011;15817;42.130;24.762;2023-03-31T01:15:28;4.72;;;2.90;;
28629;SDS011;15817;42.130;24.762;2023-03-31T01:17:55;4.20;;;2.70;;
28629;SDS011;15817;42.130;24.762;2023-03-31T01:28:39;6.70;;;2.92;;
28629;SDS011;15817;42.130;24.762;2023-03-31T01:53:42;12.60;;;6.10;;
28629;SDS011;15817;42.130;24.762;2023-03-31T01:58:53;17.45;;;8.82;;
28629;SDS011;15817;42.130;24.762;2023-03-31T02:01:28;12.57;;;6.93;;
28629;SDS011;15817;42.130;24.762;2023-03-31T02:04:02;19.25;;;7.47;;
28629;SDS011;15817;42.130;24.762;2023-03-31T02:06:42;12.05;;;6.47;;
28629;SDS011;15817;42.130;24.762;2023-03-31T02:09:15;12.43;;;5.82;;
28629;SDS011;15817;42.130;24.762;2023-03-31T02:11:46;12.07;;;4.90;;
28629;SDS011;15817;42.130;24.762;2023-03-31T02:14:19;11.85;;;4.45;;
28629;SDS011;15817;42.130;24.762;2023-03-31T02:16:49;9.25;;;5.03;;
28629;SDS011;15817;42.130;24.762;2023-03-31T02:19:22;14.05;;;4.20;;
28629;SDS011;15817;42.130;24.762;2023-03-31T02:21:52;6.82;;;4.47;;
28629;SDS011;15817;42.130;24.762;2023-03-31T02:24:20;11.10;;;4.10;;
28629;SDS011;15817;42.130;24.762;2023-03-31T02:29:37;13.40;;;4.57;;
28629;SDS011;15817;42.130;24.762;2023-03-31T02:32:07;9.90;;;4.07;;
28629;SDS011;15817;42.130;24.762;2023-03-31T02:34:40;12.25;;;3.95;;
28629;SDS011;15817;42.130;24.762;2023-03-31T02:37:06;11.02;;;4.93;;
28629;SDS011;15817;42.130;24.762;2023-03-31T02:39:34;16.63;;;5.00;;
28629;SDS011;15817;42.130;24.762;2023-03-31T02:42:03;13.13;;;5.20;;
28629;SDS011;15817;42.130;24.762;2023-03-31T02:44:35;12.45;;;4.93;;
28629;SDS011;15817;42.130;24.762;2023-03-31T02:47:03;8.35;;;4.35;;
28629;SDS011;15817;42.130;24.762;2023-03-31T02:49:32;9.10;;;4.75;;
28629;SDS011;15817;42.130;24.762;2023-03-31T02:52:04;12.48;;;4.60;;
28629;SDS011;15817;42.130;24.762;2023-03-31T02:57:51;18.77;;;5.40;;
28629;SDS011;15817;42.130;24.762;2023-03-31T03:08:45;9.57;;;4.82;;
28629;SDS011;15817;42.130;24.762;2023-03-31T03:11:43;15.23;;;5.03;;
28629;SDS011;15817;42.130;24.762;2023-03-31T03:14:16;9.93;;;4.20;;
28629;SDS011;15817;42.130;24.762;2023-03-31T03:17:01;16.13;;;5.35;;
28629;SDS011;15817;42.130;24.762;2023-03-31T03:19:31;10.43;;;5.72;;
28629;SDS011;15817;42.130;24.762;2023-03-31T03:21:57;15.52;;;5.47;;
28629;SDS011;15817;42.130;24.762;2023-03-31T03:24:23;11.50;;;4.53;;
28629;SDS011;15817;42.130;24.762;2023-03-31T03:26:53;10.25;;;4.57;;
28629;SDS011;15817;42.130;24.762;2023-03-31T03:29:20;9.63;;;4.03;;
28629;SDS011;15817;42.130;24.762;2023-03-31T03:31:46;13.88;;;4.10;;
28629;SDS011;15817;42.130;24.762;2023-03-31T03:34:17;12.68;;;4.55;;
28629;SDS011;15817;42.130;24.762;2023-03-31T03:36:44;11.00;;;4.07;;
28629;SDS011;15817;42.130;24.762;2023-03-31T03:39:10;10.68;;;3.88;;
28629;SDS011;15817;42.130;24.762;2023-03-31T03:41:38;7.85;;;3.53;;
28629;SDS011;15817;42.130;24.762;2023-03-31T03:44:04;9.68;;;4.15;;
28629;SDS011;15817;42.130;24.762;2023-03-31T03:46:30;9.15;;;4.53;;
28629;SDS011;15817;42.130;24.762;2023-03-31T03:48:56;9.95;;;4.15;;
28629;SDS011;15817;42.130;24.762;2023-03-31T03:51:24;8.73;;;4.30;;
28629;SDS011;15817;42.130;24.762;2023-03-31T03:53:52;14.52;;;4.63;;
28629;SDS011;15817;42.130;24.762;2023-03-31T03:56:18;10.30;;;4.93;;
28629;SDS011;15817;42.130;24.762;2023-03-31T03:58:46;11.18;;;5.65;;
28629;SDS011;15817;42.130;24.762;2023-03-31T04:01:12;8.45;;;4.65;;
28629;SDS011;15817;42.130;24.762;2023-03-31T04:03:43;11.68;;;4.30;;
28629;SDS011;15817;42.130;24.762;2023-03-31T04:06:09;14.68;;;4.50;;
28629;SDS011;15817;42.130;24.762;2023-03-31T04:08:38;11.00;;;4.18;;
28629;SDS011;15817;42.130;24.762;2023-03-31T04:11:08;11.77;;;4.70;;
28629;SDS011;15817;42.130;24.762;2023-03-31T04:13:40;13.57;;;5.20;;
28629;SDS011;15817;42.130;24.762;2023-03-31T04:16:06;18.38;;;4.82;;
28629;SDS011;15817;42.130;24.762;2023-03-31T04:18:32;15.20;;;4.82;;
28629;SDS011;15817;42.130;24.762;2023-03-31T04:20:58;10.38;;;4.30;;
28629;SDS011;15817;42.130;24.762;2023-03-31T04:23:30;14.07;;;4.93;;
28629;SDS011;15817;42.130;24.762;2023-03-31T04:25:56;11.23;;;4.97;;
28629;SDS011;15817;42.130;24.762;2023-03-31T04:28:22;18.58;;;5.57;;
28629;SDS011;15817;42.130;24.762;2023-03-31T04:30:48;14.27;;;5.28;;
28629;SDS011;15817;42.130;24.762;2023-03-31T04:33:14;13.75;;;5.80;;
28629;SDS011;15817;42.130;24.762;2023-03-31T04:35:40;14.32;;;6.00;;
28629;SDS011;15817;42.130;24.762;2023-03-31T04:38:15;17.30;;;5.85;;
28629;SDS011;15817;42.130;24.762;2023-03-31T04:40:44;13.10;;;6.10;;
28629;SDS011;15817;42.130;24.762;2023-03-31T04:43:10;17.25;;;6.25;;
28629;SDS011;15817;42.130;24.762;2023-03-31T04:45:36;19.05;;;5.70;;
28629;SDS011;15817;42.130;24.762;2023-03-31T04:48:08;17.25;;;5.88;;
28629;SDS011;15817;42.130;24.762;2023-03-31T04:50:37;19.52;;;6.72;;
28629;SDS011;15817;42.130;24.762;2023-03-31T04:53:07;11.95;;;6.30;;
28629;SDS011;15817;42.130;24.762;2023-03-31T04:55:33;17.42;;;6.13;;
28629;SDS011;15817;42.130;24.762;2023-03-31T04:57:59;11.70;;;5.95;;
28629;SDS011;15817;42.130;24.762;2023-03-31T05:00:25;18.48;;;6.13;;
28629;SDS011;15817;42.130;24.762;2023-03-31T05:02:55;20.63;;;6.05;;
28629;SDS011;15817;42.130;24.762;2023-03-31T05:05:24;27.10;;;7.05;;
28629;SDS011;15817;42.130;24.762;2023-03-31T05:07:50;23.40;;;5.88;;
28629;SDS011;15817;42.130;24.762;2023-03-31T05:10:15;20.48;;;6.07;;
28629;SDS011;15817;42.130;24.762;2023-03-31T05:12:41;10.45;;;5.82;;
28629;SDS011;15817;42.130;24.762;2023-03-31T05:15:07;17.20;;;6.13;;
28629;SDS011;15817;42.130;24.762;2023-03-31T05:17:34;19.95;;;6.25;;
28629;SDS011;15817;42.130;24.762;2023-03-31T05:20:00;21.83;;;6.97;;
28629;SDS011;15817;42.130;24.762;2023-03-31T05:22:31;20.05;;;6.80;;
28629;SDS011;15817;42.130;24.762;2023-03-31T05:25:02;13.95;;;5.20;;
28629;SDS011;15817;42.130;24.762;2023-03-31T05:27:29;17.90;;;5.30;;
28629;SDS011;15817;42.130;24.762;2023-03-31T05:29:55;13.95;;;5.30;;
28629;SDS011;15817;42.130;24.762;2023-03-31T05:32:24;11.63;;;5.55;;
28629;SDS011;15817;42.130;24.762;2023-03-31T05:34:51;10.05;;;5.85;;
28629;SDS011;15817;42.130;24.762;2023-03-31T05:37:21;15.57;;;6.53;;
28629;SDS011;15817;42.130;24.762;2023-03-31T05:39:56;12.98;;;6.50;;
28629;SDS011;15817;42.130;24.762;2023-03-31T05:42:22;18.92;;;6.78;;
28629;SDS011;15817;42.130;24.762;2023-03-31T05:44:51;12.60;;;5.90;;
28629;SDS011;15817;42.130;24.762;2023-03-31T05:47:20;16.98;;;5.28;;
28629;SDS011;15817;42.130;24.762;2023-03-31T05:49:47;17.80;;;5.82;;
28629;SDS011;15817;42.130;24.762;2023-03-31T05:52:15;18.65;;;6.47;;
28629;SDS011;15817;42.130;24.762;2023-03-31T05:54:41;12.57;;;5.55;;
28629;SDS011;15817;42.130;24.762;2023-03-31T05:57:08;16.48;;;6.70;;
28629;SDS011;15817;42.130;24.762;2023-03-31T05:59:36;13.20;;;6.05;;
28629;SDS011;15817;42.130;24.762;2023-03-31T06:02:02;17.15;;;6.57;;
28629;SDS011;15817;42.130;24.762;2023-03-31T06:04:32;23.38;;;7.00;;
28629;SDS011;15817;42.130;24.762;2023-03-31T06:07:07;19.45;;;6.15;;
28629;SDS011;15817;42.130;24.762;2023-03-31T06:09:36;14.77;;;6.13;;
28629;SDS011;15817;42.130;24.762;2023-03-31T06:12:02;14.30;;;6.32;;
28629;SDS011;15817;42.130;24.762;2023-03-31T06:14:28;10.52;;;5.72;;
28629;SDS011;15817;42.130;24.762;2023-03-31T06:16:53;15.73;;;5.97;;
28629;SDS011;15817;42.130;24.762;2023-03-31T06:19:19;17.88;;;6.93;;
28629;SDS011;15817;42.130;24.762;2023-03-31T06:21:48;14.50;;;6.90;;
28629;SDS011;15817;42.130;24.762;2023-03-31T06:24:16;19.02;;;8.75;;
28629;SDS011;15817;42.130;24.762;2023-03-31T06:26:42;23.77;;;8.68;;
28629;SDS011;15817;42.130;24.762;2023-03-31T06:29:14;23.48;;;9.25;;
28629;SDS011;15817;42.130;24.762;2023-03-31T06:31:40;28.00;;;10.20;;
28629;SDS011;15817;42.130;24.762;2023-03-31T06:34:06;19.27;;;8.43;;
28629;SDS011;15817;42.130;24.762;2023-03-31T06:36:41;14.75;;;7.97;;
28629;SDS011;15817;42.130;24.762;2023-03-31T06:39:09;15.00;;;7.85;;
28629;SDS011;15817;42.130;24.762;2023-03-31T06:41:40;18.05;;;8.25;;
28629;SDS011;15817;42.130;24.762;2023-03-31T06:44:16;25.23;;;8.27;;
28629;SDS011;15817;42.130;24.762;2023-03-31T06:46:43;202.18;;;21.08;;
28629;SDS011;15817;42.130;24.762;2023-03-31T06:49:12;25.95;;;9.20;;
28629;SDS011;15817;42.130;24.762;2023-03-31T06:51:38;78.57;;;12.05;;
28629;SDS011;15817;42.130;24.762;2023-03-31T06:57:06;20.35;;;7.35;;
28629;SDS011;15817;42.130;24.762;2023-03-31T06:59:32;24.75;;;7.22;;
28629;SDS011;15817;42.130;24.762;2023-03-31T07:02:03;83.85;;;12.57;;
28629;SDS011;15817;42.130;24.762;2023-03-31T07:04:33;18.80;;;7.35;;
28629;SDS011;15817;42.130;24.762;2023-03-31T07:06:58;16.50;;;6.75;;
28629;SDS011;15817;42.130;24.762;2023-03-31T07:09:24;39.28;;;8.82;;
28629;SDS011;15817;42.130;24.762;2023-03-31T07:11:50;13.68;;;6.95;;
28629;SDS011;15817;42.130;24.762;2023-03-31T07:14:16;16.52;;;6.65;;
28629;SDS011;15817;42.130;24.762;2023-03-31T07:16:45;15.35;;;6.85;;
28629;SDS011;15817;42.130;24.762;2023-03-31T07:19:19;29.60;;;7.35;;
28629;SDS011;15817;42.130;24.762;2023-03-31T07:25:15;19.17;;;6.03;;
28629;SDS011;15817;42.130;24.762;2023-03-31T07:27:51;12.15;;;6.47;;
28629;SDS011;15817;42.130;24.762;2023-03-31T07:30:20;16.02;;;5.93;;
28629;SDS011;15817;42.130;24.762;2023-03-31T07:32:48;16.20;;;6.68;;
28629;SDS011;15817;42.130;24.762;2023-03-31T07:35:18;16.08;;;6.82;;
28629;SDS011;15817;42.130;24.762;2023-03-31T07:37:49;13.70;;;6.68;;
28629;SDS011;15817;42.130;24.762;2023-03-31T07:40:17;18.55;;;7.20;;
28629;SDS011;15817;42.130;24.762;2023-03-31T07:43:03;19.42;;;7.28;;
28629;SDS011;15817;42.130;24.762;2023-03-31T07:45:29;16.98;;;7.68;;
28629;SDS011;15817;42.130;24.762;2023-03-31T07:47:58;28.60;;;8.82;;
28629;SDS011;15817;42.130;24.762;2023-03-31T07:50:27;22.83;;;9.40;;
28629;SDS011;15817;42.130;24.762;2023-03-31T07:52:57;22.05;;;9.52;;
28629;SDS011;15817;42.130;24.762;2023-03-31T07:55:23;19.25;;;8.20;;
28629;SDS011;15817;42.130;24.762;2023-03-31T07:57:51;24.35;;;8.70;;
28629;SDS011;15817;42.130;24.762;2023-03-31T08:00:17;23.48;;;8.90;;
28629;SDS011;15817;42.130;24.762;2023-03-31T08:02:43;19.42;;;8.50;;
28629;SDS011;15817;42.130;24.762;2023-03-31T08:05:10;16.65;;;8.60;;
28629;SDS011;15817;42.130;24.762;2023-03-31T08:07:39;19.48;;;8.88;;
28629;SDS011;15817;42.130;24.762;2023-03-31T08:10:11;19.27;;;8.98;;
28629;SDS011;15817;42.130;24.762;2023-03-31T08:12:39;20.08;;;9.35;;
28629;SDS011;15817;42.130;24.762;2023-03-31T08:15:05;18.08;;;9.10;;
28629;SDS011;15817;42.130;24.762;2023-03-31T08:17:31;18.45;;;8.13;;
28629;SDS011;15817;42.130;24.762;2023-03-31T08:19:57;16.65;;;8.00;;
28629;SDS011;15817;42.130;24.762;2023-03-31T08:22:23;17.10;;;7.65;;
28629;SDS011;15817;42.130;24.762;2023-03-31T08:24:49;13.48;;;8.05;;
28629;SDS011;15817;42.130;24.762;2023-03-31T08:27:14;20.25;;;9.40;;
28629;SDS011;15817;42.130;24.762;2023-03-31T08:29:41;22.65;;;8.23;;
28629;SDS011;15817;42.130;24.762;2023-03-31T08:32:09;22.02;;;8.38;;
28629;SDS011;15817;42.130;24.762;2023-03-31T08:34:35;23.42;;;8.63;;
28629;SDS011;15817;42.130;24.762;2023-03-31T08:37:02;25.90;;;9.15;;
28629;SDS011;15817;42.130;24.762;2023-03-31T08:39:28;30.02;;;8.75;;
28629;SDS011;15817;42.130;24.762;2023-03-31T08:42:04;16.15;;;7.72;;
28629;SDS011;15817;42.130;24.762;2023-03-31T08:44:44;22.23;;;8.18;;
28629;SDS011;15817;42.130;24.762;2023-03-31T08:47:25;23.83;;;8.27;;
28629;SDS011;15817;42.130;24.762;2023-03-31T09:22:29;17.92;;;7.72;;
28629;SDS011;15817;42.130;24.762;2023-03-31T09:27:36;12.23;;;6.70;;
28629;SDS011;15817;42.130;24.762;2023-03-31T09:32:52;14.98;;;6.07;;
28629;SDS011;15817;42.130;24.762;2023-03-31T09:35:39;23.65;;;6.60;;
28629;SDS011;15817;42.130;24.762;2023-03-31T09:38:05;21.63;;;6.05;;
28629;SDS011;15817;42.130;24.762;2023-03-31T09:40:34;11.90;;;5.20;;
28629;SDS011;15817;42.130;24.762;2023-03-31T09:43:21;20.70;;;6.65;;
28629;SDS011;15817;42.130;24.762;2023-03-31T09:45:54;13.40;;;3.13;;
28629;SDS011;15817;42.130;24.762;2023-03-31T09:48:28;5.82;;;2.20;;
28629;SDS011;15817;42.130;24.762;2023-03-31T09:50:57;14.57;;;3.05;;
28629;SDS011;15817;42.130;24.762;2023-03-31T09:55:59;8.73;;;2.80;;
28629;SDS011;15817;42.130;24.762;2023-03-31T09:58:43;11.18;;;2.92;;
28629;SDS011;15817;42.130;24.762;2023-03-31T10:01:11;9.30;;;3.00;;
28629;SDS011;15817;42.130;24.762;2023-03-31T10:03:48;20.83;;;3.80;;
28629;SDS011;15817;42.130;24.762;2023-03-31T10:06:15;76.60;;;7.20;;
28629;SDS011;15817;42.130;24.762;2023-03-31T10:08:51;93.40;;;8.35;;
28629;SDS011;15817;42.130;24.762;2023-03-31T10:11:19;46.53;;;5.50;;
28629;SDS011;15817;42.130;24.762;2023-03-31T10:16:40;21.05;;;3.80;;
28629;SDS011;15817;42.130;24.762;2023-03-31T10:21:57;11.90;;;3.15;;
28629;SDS011;15817;42.130;24.762;2023-03-31T10:24:25;12.73;;;3.80;;
28629;SDS011;15817;42.130;24.762;2023-03-31T10:29:42;10.02;;;3.13;;
28629;SDS011;15817;42.130;24.762;2023-03-31T10:32:22;14.40;;;3.47;;
28629;SDS011;15817;42.130;24.762;2023-03-31T10:34:52;6.72;;;3.72;;
28629;SDS011;15817;42.130;24.762;2023-03-31T10:37:25;9.80;;;3.63;;
28629;SDS011;15817;42.130;24.762;2023-03-31T10:40:04;12.55;;;3.70;;
28629;SDS011;15817;42.130;24.762;2023-03-31T10:42:46;5.22;;;2.92;;
28629;SDS011;15817;42.130;24.762;2023-03-31T10:47:48;8.25;;;3.50;;
28629;SDS011;15817;42.130;24.762;2023-03-31T10:50:17;10.40;;;3.65;;
28629;SDS011;15817;42.130;24.762;2023-03-31T10:53:10;12.52;;;3.22;;
28629;SDS011;15817;42.130;24.762;2023-03-31T10:55:40;7.05;;;3.97;;
28629;SDS011;15817;42.130;24.762;2023-03-31T10:58:26;10.63;;;3.95;;
28629;SDS011;15817;42.130;24.762;2023-03-31T11:01:02;11.73;;;3.42;;
28629;SDS011;15817;42.130;24.762;2023-03-31T11:04:00;9.98;;;3.55;;
28629;SDS011;15817;42.130;24.762;2023-03-31T11:06:51;7.60;;;3.65;;
28629;SDS011;15817;42.130;24.762;2023-03-31T11:12:39;12.65;;;3.92;;
28629;SDS011;15817;42.130;24.762;2023-03-31T11:15:19;13.23;;;3.88;;
28629;SDS011;15817;42.130;24.762;2023-03-31T11:26:47;4.28;;;2.83;;
28629;SDS011;15817;42.130;24.762;2023-03-31T11:35:43;11.43;;;4.05;;
28629;SDS011;15817;42.130;24.762;2023-03-31T11:38:37;12.50;;;3.35;;
28629;SDS011;15817;42.130;24.762;2023-03-31T11:41:39;13.60;;;3.70;;
28629;SDS011;15817;42.130;24.762;2023-03-31T11:44:29;10.73;;;3.22;;
28629;SDS011;15817;42.130;24.762;2023-03-31T11:47:31;6.07;;;3.33;;
28629;SDS011;15817;42.130;24.762;2023-03-31T11:50:11;7.35;;;3.00;;
28629;SDS011;15817;42.130;24.762;2023-03-31T11:53:14;9.15;;;2.88;;
28629;SDS011;15817;42.130;24.762;2023-03-31T11:55:42;5.95;;;2.72;;
28629;SDS011;15817;42.130;24.762;2023-03-31T11:58:16;7.70;;;2.55;;
28629;SDS011;15817;42.130;24.762;2023-03-31T12:00:52;3.65;;;2.55;;
28629;SDS011;15817;42.130;24.762;2023-03-31T12:06:02;6.30;;;2.70;;
28629;SDS011;15817;42.130;24.762;2023-03-31T12:17:16;7.05;;;2.40;;
28629;SDS011;15817;42.130;24.762;2023-03-31T12:25:13;7.85;;;2.53;;
28629;SDS011;15817;42.130;24.762;2023-03-31T12:27:44;8.02;;;2.55;;
28629;SDS011;15817;42.130;24.762;2023-03-31T12:30:46;7.47;;;2.35;;
28629;SDS011;15817;42.130;24.762;2023-03-31T12:57:02;3.72;;;1.48;;
28629;SDS011;15817;42.130;24.762;2023-03-31T13:04:35;5.10;;;1.70;;
28629;SDS011;15817;42.130;24.762;2023-03-31T13:07:02;7.28;;;1.90;;
28629;SDS011;15817;42.130;24.762;2023-03-31T13:11:55;5.82;;;2.22;;
28629;SDS011;15817;42.130;24.762;2023-03-31T13:14:35;4.03;;;1.95;;
28629;SDS011;15817;42.130;24.762;2023-03-31T13:17:20;6.72;;;2.90;;
28629;SDS011;15817;42.130;24.762;2023-03-31T13:23:01;4.38;;;1.60;;
28629;SDS011;15817;42.130;24.762;2023-03-31T13:25:39;4.78;;;1.60;;
28629;SDS011;15817;42.130;24.762;2023-03-31T13:28:15;4.47;;;1.70;;
28629;SDS011;15817;42.130;24.762;2023-03-31T13:30:59;9.65;;;2.45;;
28629;SDS011;15817;42.130;24.762;2023-03-31T13:33:31;10.75;;;2.20;;
28629;SDS011;15817;42.130;24.762;2023-03-31T13:53:16;4.55;;;1.77;;
28629;SDS011;15817;42.130;24.762;2023-03-31T14:05:39;6.15;;;1.80;;
28629;SDS011;15817;42.130;24.762;2023-03-31T14:11:21;6.38;;;2.35;;
28629;SDS011;15817;42.130;24.762;2023-03-31T14:13:58;5.70;;;2.30;;
28629;SDS011;15817;42.130;24.762;2023-03-31T14:16:36;5.50;;;1.70;;
28629;SDS011;15817;42.130;24.762;2023-03-31T14:30:36;11.07;;;2.50;;
28629;SDS011;15817;42.130;24.762;2023-03-31T14:38:35;4.47;;;2.10;;
28629;SDS011;15817;42.130;24.762;2023-03-31T14:41:01;3.83;;;2.05;;
28629;SDS011;15817;42.130;24.762;2023-03-31T14:43:33;6.97;;;2.88;;
28629;SDS011;15817;42.130;24.762;2023-03-31T14:46:06;7.13;;;2.22;;
28629;SDS011;15817;42.130;24.762;2023-03-31T14:48:38;5.28;;;2.35;;
28629;SDS011;15817;42.130;24.762;2023-03-31T14:51:16;7.38;;;2.00;;
28629;SDS011;15817;42.130;24.762;2023-03-31T14:53:44;10.55;;;2.40;;
28629;SDS011;15817;42.130;24.762;2023-03-31T14:56:13;9.20;;;3.05;;
28629;SDS011;15817;42.130;24.762;2023-03-31T14:59:03;4.18;;;2.42;;
28629;SDS011;15817;42.130;24.762;2023-03-31T15:01:43;8.75;;;2.85;;
28629;SDS011;15817;42.130;24.762;2023-03-31T15:07:56;13.50;;;3.22;;
28629;SDS011;15817;42.130;24.762;2023-03-31T15:10:48;3.85;;;1.85;;
28629;SDS011;15817;42.130;24.762;2023-03-31T15:18:57;7.80;;;2.53;;
28629;SDS011;15817;42.130;24.762;2023-03-31T15:21:45;3.28;;;1.83;;
28629;SDS011;15817;42.130;24.762;2023-03-31T15:24:22;3.42;;;2.20;;
28629;SDS011;15817;42.130;24.762;2023-03-31T15:32:26;3.80;;;2.08;;
28629;SDS011;15817;42.130;24.762;2023-03-31T15:34:59;5.15;;;2.03;;
28629;SDS011;15817;42.130;24.762;2023-03-31T15:37:37;7.07;;;2.47;;
28629;SDS011;15817;42.130;24.762;2023-03-31T15:40:14;5.00;;;2.35;;
28629;SDS011;15817;42.130;24.762;2023-03-31T15:42:47;6.70;;;2.90;;
28629;SDS011;15817;42.130;24.762;2023-03-31T15:48:01;5.22;;;2.58;;
28629;SDS011;15817;42.130;24.762;2023-03-31T15:50:31;10.00;;;2.53;;
28629;SDS011;15817;42.130;24.762;2023-03-31T15:59:55;7.07;;;2.35;;
28629;SDS011;15817;42.130;24.762;2023-03-31T16:07:01;16.45;;;2.50;;
28629;SDS011;15817;42.130;24.762;2023-03-31T16:16:08;8.40;;;2.72;;
28629;SDS011;15817;42.130;24.762;2023-03-31T16:19:01;9.10;;;3.00;;
28629;SDS011;15817;42.130;24.762;2023-03-31T16:25:49;7.55;;;3.67;;
28629;SDS011;15817;42.130;24.762;2023-03-31T16:32:07;9.52;;;3.78;;
28629;SDS011;15817;42.130;24.762;2023-03-31T16:34:57;4.70;;;2.58;;
28629;SDS011;15817;42.130;24.762;2023-03-31T16:40:47;8.95;;;3.08;;
28629;SDS011;15817;42.130;24.762;2023-03-31T16:43:25;9.18;;;2.72;;
28629;SDS011;15817;42.130;24.762;2023-03-31T16:46:05;7.15;;;2.83;;
28629;SDS011;15817;42.130;24.762;2023-03-31T16:48:34;7.95;;;2.50;;
28629;SDS011;15817;42.130;24.762;2023-03-31T16:51:06;9.57;;;3.10;;
28629;SDS011;15817;42.130;24.762;2023-03-31T16:53:41;5.60;;;2.67;;
28629;SDS011;15817;42.130;24.762;2023-03-31T16:56:18;7.53;;;2.92;;
28629;SDS011;15817;42.130;24.762;2023-03-31T16:58:55;8.25;;;2.80;;
28629;SDS011;15817;42.130;24.762;2023-03-31T17:01:21;13.82;;;3.60;;
28629;SDS011;15817;42.130;24.762;2023-03-31T17:03:47;9.30;;;4.32;;
28629;SDS011;15817;42.130;24.762;2023-03-31T17:06:28;26.42;;;9.30;;
28629;SDS011;15817;42.130;24.762;2023-03-31T17:08:57;21.25;;;8.70;;
28629;SDS011;15817;42.130;24.762;2023-03-31T17:11:23;21.80;;;8.52;;
28629;SDS011;15817;42.130;24.762;2023-03-31T17:13:53;19.15;;;8.40;;
28629;SDS011;15817;42.130;24.762;2023-03-31T17:16:29;18.17;;;7.43;;
28629;SDS011;15817;42.130;24.762;2023-03-31T17:19:19;13.32;;;7.40;;
28629;SDS011;15817;42.130;24.762;2023-03-31T17:21:51;14.50;;;7.07;;
28629;SDS011;15817;42.130;24.762;2023-03-31T17:24:19;17.55;;;7.90;;
28629;SDS011;15817;42.130;24.762;2023-03-31T17:26:49;13.32;;;6.07;;
28629;SDS011;15817;42.130;24.762;2023-03-31T17:29:21;12.35;;;6.05;;
28629;SDS011;15817;42.130;24.762;2023-03-31T17:32:21;10.68;;;6.20;;
28629;SDS011;15817;42.130;24.762;2023-03-31T17:37:48;13.20;;;7.43;;
28629;SDS011;15817;42.130;24.762;2023-03-31T17:51:25;14.60;;;4.93;;
28629;SDS011;15817;42.130;24.762;2023-03-31T17:57:52;17.30;;;6.32;;
28629;SDS011;15817;42.130;24.762;2023-03-31T18:00:45;21.63;;;6.03;;
28629;SDS011;15817;42.130;24.762;2023-03-31T18:03:43;24.08;;;6.20;;
28629;SDS011;15817;42.130;24.762;2023-03-31T18:09:23;24.00;;;6.60;;
28629;SDS011;15817;42.130;24.762;2023-03-31T18:12:28;14.18;;;5.47;;
28629;SDS011;15817;42.130;24.762;2023-03-31T18:15:06;19.15;;;6.70;;
28629;SDS011;15817;42.130;24.762;2023-03-31T18:32:47;16.02;;;5.15;;
28629;SDS011;15817;42.130;24.762;2023-03-31T18:35:33;15.20;;;5.95;;
28629;SDS011;15817;42.130;24.762;2023-03-31T18:38:15;15.75;;;7.55;;
28629;SDS011;15817;42.130;24.762;2023-03-31T18:40:46;15.60;;;6.72;;
28629;SDS011;15817;42.130;24.762;2023-03-31T18:43:49;16.45;;;6.78;;
28629;SDS011;15817;42.130;24.762;2023-03-31T18:54:37;16.00;;;7.18;;
28629;SDS011;15817;42.130;24.762;2023-03-31T18:58:13;21.10;;;8.63;;
28629;SDS011;15817;42.130;24.762;2023-03-31T19:00:39;17.33;;;8.30;;
28629;SDS011;15817;42.130;24.762;2023-03-31T19:03:09;20.10;;;7.85;;
28629;SDS011;15817;42.130;24.762;2023-03-31T19:05:42;15.70;;;7.15;;
28629;SDS011;15817;42.130;24.762;2023-03-31T19:08:08;14.75;;;7.00;;
28629;SDS011;15817;42.130;24.762;2023-03-31T19:10:34;13.27;;;6.70;;
28629;SDS011;15817;42.130;24.762;2023-03-31T19:20:19;14.43;;;6.22;;
28629;SDS011;15817;42.130;24.762;2023-03-31T19:24:29;11.85;;;6.22;;
28629;SDS011;15817;42.130;24.762;2023-03-31T19:26:45;12.32;;;5.75;;
28629;SDS011;15817;42.130;24.762;2023-03-31T19:29:37;12.77;;;6.10;;
28629;SDS011;15817;42.130;24.762;2023-03-31T19:32:52;13.38;;;6.25;;
28629;SDS011;15817;42.130;24.762;2023-03-31T19:35:19;11.60;;;6.65;;
28629;SDS011;15817;42.130;24.762;2023-03-31T19:37:45;12.75;;;6.50;;
28629;SDS011;15817;42.130;24.762;2023-03-31T19:40:16;9.98;;;5.80;;
28629;SDS011;15817;42.130;24.762;2023-03-31T19:42:45;7.53;;;4.57;;
28629;SDS011;15817;42.130;24.762;2023-03-31T19:45:34;10.23;;;4.15;;
28629;SDS011;15817;42.130;24.762;2023-03-31T19:48:44;6.65;;;4.30;;
28629;SDS011;15817;42.130;24.762;2023-03-31T19:51:12;10.48;;;4.40;;
28629;SDS011;15817;42.130;24.762;2023-03-31T19:53:38;10.82;;;4.40;;
28629;SDS011;15817;42.130;24.762;2023-03-31T19:56:12;7.07;;;4.40;;
28629;SDS011;15817;42.130;24.762;2023-03-31T19:58:40;9.02;;;4.18;;
28629;SDS011;15817;42.130;24.762;2023-03-31T20:04:32;6.38;;;3.80;;
28629;SDS011;15817;42.130;24.762;2023-03-31T20:07:02;6.82;;;4.18;;
28629;SDS011;15817;42.130;24.762;2023-03-31T20:09:37;9.65;;;4.72;;
28629;SDS011;15817;42.130;24.762;2023-03-31T20:19:03;5.78;;;4.50;;
28629;SDS011;15817;42.130;24.762;2023-03-31T20:21:45;6.70;;;4.38;;
28629;SDS011;15817;42.130;24.762;2023-03-31T20:28:05;8.10;;;4.55;;
28629;SDS011;15817;42.130;24.762;2023-03-31T20:33:58;9.05;;;3.95;;
28629;SDS011;15817;42.130;24.762;2023-03-31T20:37:21;8.98;;;3.28;;
28629;SDS011;15817;42.130;24.762;2023-03-31T20:39:59;9.50;;;3.78;;